Time;durP1;ratioP1;P1;durP2;ratioP2;P2;SDS_P1;SDS_P2;PMS_P1;PMS_P2;Temp;Humidity;BMP_temperature;BMP_pressure;BME280_temperature;BME280_humidity;BME280_pressure;Samples;Min_cycle;Max_cycle;Signal;HPM_P1;HPM_P2
2021/05/05 00:01:00;;;;;;;3.22;2.00;;;;;;;10.43;77.10;97242.41;4971502;28;20488;-75
2021/05/05 00:03:25;;;;;;;3.17;2.15;;;;;;;10.29;77.84;97246.34;4971126;28;20058;-76
2021/05/05 00:05:53;;;;;;;4.53;1.95;;;;;;;10.22;78.50;97238.56;4972194;28;20062;-77
2021/05/05 00:08:19;;;;;;;4.13;2.45;;;;;;;10.12;78.89;97230.59;4973814;28;20030;-76
2021/05/05 00:10:44;;;;;;;4.55;2.20;;;;;;;10.19;78.54;97231.81;4975403;28;20031;-75
2021/05/05 00:13:10;;;;;;;2.65;1.77;;;;;;;10.18;78.51;97219.25;4974961;28;20034;-75
2021/05/05 00:15:35;;;;;;;2.25;1.83;;;;;;;10.19;78.43;97222.81;4974869;28;20387;-74
2021/05/05 00:18:01;;;;;;;4.00;1.90;;;;;;;10.15;78.82;97219.06;4975088;28;20078;-75
2021/05/05 00:20:26;;;;;;;3.63;2.00;;;;;;;9.99;79.38;97217.81;4974875;28;20145;-76
2021/05/05 00:22:52;;;;;;;2.83;2.15;;;;;;;9.93;79.75;97216.31;4975873;28;20446;-76
2021/05/05 00:25:20;;;;;;;3.78;2.15;;;;;;;9.90;80.10;97211.47;4976062;28;20038;-75
2021/05/05 00:27:46;;;;;;;5.10;2.70;;;;;;;9.93;80.02;97205.41;4976259;28;20035;-75
2021/05/05 00:30:12;;;;;;;2.55;1.85;;;;;;;9.89;80.29;97207.13;4975800;28;20505;-76
2021/05/05 00:32:39;;;;;;;6.85;2.20;;;;;;;9.94;80.08;97202.34;4974870;28;20051;-74
2021/05/05 00:35:06;;;;;;;6.22;1.95;;;;;;;9.97;79.88;97209.09;4974675;28;20031;-75
2021/05/05 00:37:31;;;;;;;10.68;2.67;;;;;;;9.90;80.34;97197.81;4974457;28;20034;-74
2021/05/05 00:39:57;;;;;;;2.30;2.03;;;;;;;9.95;80.30;97200.41;4974961;28;20035;-77
2021/05/05 00:42:23;;;;;;;5.43;2.30;;;;;;;9.93;80.55;97199.94;4974694;28;20060;-77
2021/05/05 00:44:49;;;;;;;3.25;1.88;;;;;;;9.96;80.19;97189.16;4974263;28;20401;-76
2021/05/05 00:47:18;;;;;;;2.85;2.08;;;;;;;9.90;80.66;97189.63;4974389;28;20027;-75
2021/05/05 00:49:44;;;;;;;10.25;2.05;;;;;;;9.81;80.93;97192.25;4974316;28;20372;-75
2021/05/05 00:52:09;;;;;;;2.17;1.75;;;;;;;9.72;81.24;97183.19;4974321;28;20033;-75
2021/05/05 00:54:35;;;;;;;3.38;1.98;;;;;;;9.81;81.39;97184.06;4974428;28;20030;-74
2021/05/05 00:57:01;;;;;;;2.75;1.90;;;;;;;9.89;80.96;97177.88;4973980;28;20562;-75
2021/05/05 00:59:27;;;;;;;6.20;2.85;;;;;;;9.87;80.90;97171.91;4973827;28;20558;-75
2021/05/05 01:01:52;;;;;;;14.93;2.80;;;;;;;9.82;81.18;97165.75;4973945;28;20030;-75
2021/05/05 01:04:20;;;;;;;4.05;2.08;;;;;;;9.72;81.54;97166.81;4974064;28;20033;-75
2021/05/05 01:06:46;;;;;;;4.65;1.88;;;;;;;9.82;80.98;97166.59;4972853;28;20065;-75
2021/05/05 01:09:12;;;;;;;6.88;3.97;;;;;;;9.73;81.17;97170.34;4974212;28;20065;-76
2021/05/05 01:11:38;;;;;;;3.72;2.05;;;;;;;9.68;81.80;97176.72;4974028;28;20023;-75
2021/05/05 01:14:04;;;;;;;2.85;1.90;;;;;;;9.65;81.93;97172.69;4973733;28;20034;-74
2021/05/05 01:16:29;;;;;;;5.00;2.17;;;;;;;9.68;81.82;97166.63;4973839;28;20471;-74
2021/05/05 01:18:54;;;;;;;8.15;3.45;;;;;;;9.68;82.03;97163.88;4973342;28;20027;-74
2021/05/05 01:21:20;;;;;;;6.13;3.17;;;;;;;9.57;82.54;97164.44;4973592;28;20070;-74
2021/05/05 01:23:46;;;;;;;7.80;2.80;;;;;;;9.57;83.01;97159.78;4973733;28;20423;-75
2021/05/05 01:26:11;;;;;;;5.88;2.47;;;;;;;9.32;83.93;97148.63;4973854;28;20034;-74
2021/05/05 01:28:43;;;;;;;4.70;3.38;;;;;;;9.43;83.78;97159.00;4978358;28;20066;-75
2021/05/05 01:31:12;;;;;;;3.42;2.22;;;;;;;9.34;84.23;97162.78;4986358;28;20042;-75
2021/05/05 01:33:39;;;;;;;6.50;2.15;;;;;;;9.37;83.84;97160.25;4973639;28;20085;-75
2021/05/05 01:36:05;;;;;;;4.47;2.15;;;;;;;9.23;84.50;97156.75;4973487;28;20063;-73
2021/05/05 01:38:30;;;;;;;2.72;2.10;;;;;;;9.18;84.66;97142.41;4973460;28;20118;-75
2021/05/05 01:40:56;;;;;;;4.75;2.60;;;;;;;9.19;84.68;97150.28;4973674;28;20035;-75
2021/05/05 01:43:21;;;;;;;3.35;2.45;;;;;;;9.15;84.92;97136.44;4971953;28;20057;-75
2021/05/05 01:45:46;;;;;;;5.90;2.67;;;;;;;9.16;84.42;97148.16;4970377;28;20038;-75
2021/05/05 01:48:12;;;;;;;4.38;2.50;;;;;;;9.23;83.79;97137.66;4969505;28;20050;-76
2021/05/05 01:50:38;;;;;;;4.75;2.50;;;;;;;9.22;83.79;97143.41;4971783;28;20035;-75
2021/05/05 01:53:04;;;;;;;2.53;2.20;;;;;;;9.08;84.36;97146.94;4971780;28;20058;-77
2021/05/05 01:55:30;;;;;;;6.07;2.58;;;;;;;8.98;85.26;97130.00;4971667;28;20031;-76
2021/05/05 01:57:56;;;;;;;4.55;2.63;;;;;;;9.01;85.46;97137.59;4971672;28;20031;-78
2021/05/05 02:00:31;;;;;;;6.80;2.50;;;;;;;9.01;84.90;97132.13;4972507;28;20027;-77
2021/05/05 02:02:57;;;;;;;7.70;3.00;;;;;;;8.97;85.40;97136.56;4972702;28;20031;-78
2021/05/05 02:05:23;;;;;;;6.97;2.67;;;;;;;8.93;85.94;97119.19;4971298;28;20027;-78
2021/05/05 02:07:49;;;;;;;8.32;2.58;;;;;;;8.91;86.35;97130.44;4971351;28;20125;-77
2021/05/05 02:10:19;;;;;;;7.45;2.33;;;;;;;8.85;86.72;97122.66;4972845;28;20019;-78
2021/05/05 02:12:45;;;;;;;2.70;2.22;;;;;;;8.95;86.09;97112.34;4972552;28;20030;-76
2021/05/05 02:15:13;;;;;;;7.55;2.90;;;;;;;9.10;85.83;97125.66;4971324;28;20030;-77
2021/05/05 02:17:39;;;;;;;6.22;2.80;;;;;;;9.09;85.69;97121.31;4972380;28;20038;-76
2021/05/05 02:20:09;;;;;;;7.80;2.58;;;;;;;9.07;85.64;97123.53;4972630;28;20030;-77
2021/05/05 02:22:35;;;;;;;4.72;2.55;;;;;;;8.98;85.74;97116.38;4972225;28;20030;-77
2021/05/05 02:25:00;;;;;;;5.63;2.65;;;;;;;9.02;85.75;97112.72;4971049;28;20031;-81
2021/05/05 02:27:27;;;;;;;8.75;4.65;;;;;;;9.04;86.14;97124.16;4972207;28;20033;-76
2021/05/05 02:29:53;;;;;;;5.35;2.38;;;;;;;9.02;86.02;97120.13;4971170;28;20033;-77
2021/05/05 02:32:22;;;;;;;5.75;2.50;;;;;;;9.01;86.37;97108.41;4972131;28;20038;-77
2021/05/05 02:34:49;;;;;;;5.65;2.60;;;;;;;8.96;86.66;97108.50;4972232;28;20049;-76
2021/05/05 02:37:14;;;;;;;6.05;3.50;;;;;;;8.90;86.97;97106.97;4970754;28;20031;-76
2021/05/05 02:39:41;;;;;;;10.10;2.47;;;;;;;8.91;87.06;97103.16;4970963;28;20492;-77
2021/05/05 02:42:10;;;;;;;7.72;2.75;;;;;;;8.92;87.26;97114.88;4972082;28;20423;-75
2021/05/05 02:44:38;;;;;;;6.38;2.85;;;;;;;9.04;86.99;97120.59;4971975;28;20031;-76
2021/05/05 02:47:04;;;;;;;5.13;2.60;;;;;;;9.09;86.82;97115.84;4971814;28;20503;-76
2021/05/05 02:49:31;;;;;;;6.15;3.45;;;;;;;8.94;87.70;97109.91;4972108;28;20027;-77
2021/05/05 02:51:57;;;;;;;6.32;3.35;;;;;;;8.97;87.74;97112.84;4972407;28;20034;-76
2021/05/05 02:54:23;;;;;;;8.90;3.28;;;;;;;9.03;87.63;97110.81;4973215;28;20062;-75
2021/05/05 02:56:48;;;;;;;4.93;2.63;;;;;;;8.90;87.95;97100.72;4972419;28;20089;-75
2021/05/05 02:59:13;;;;;;;3.70;2.80;;;;;;;8.86;88.15;97099.72;4971886;28;20109;-78
2021/05/05 03:01:39;;;;;;;4.13;2.72;;;;;;;8.87;88.16;97096.69;4971643;28;20034;-76
2021/05/05 03:04:04;;;;;;;6.00;2.67;;;;;;;8.78;88.62;97097.72;4971498;28;20468;-77
2021/05/05 03:06:30;;;;;;;4.60;2.95;;;;;;;8.72;88.92;97094.28;4971728;28;20047;-76
2021/05/05 03:08:57;;;;;;;3.85;2.80;;;;;;;8.73;89.34;97082.28;4971382;28;20058;-75
2021/05/05 03:11:22;;;;;;;9.68;3.00;;;;;;;8.79;89.22;97080.25;4972064;28;20478;-77
2021/05/05 03:13:48;;;;;;;4.50;3.13;;;;;;;8.87;89.09;97079.50;4971911;28;20066;-75
2021/05/05 03:16:13;;;;;;;5.40;2.80;;;;;;;8.87;88.87;97079.50;4971689;28;20023;-76
2021/05/05 03:18:39;;;;;;;4.50;3.53;;;;;;;9.06;89.48;97083.72;4971716;28;20066;-76
2021/05/05 03:21:04;;;;;;;5.88;3.67;;;;;;;9.16;88.32;97077.22;4971574;28;20023;-75
2021/05/05 03:23:30;;;;;;;5.32;3.08;;;;;;;9.46;88.09;97075.72;4970308;28;20508;-76
2021/05/05 03:25:55;;;;;;;5.53;2.78;;;;;;;9.60;87.21;97073.72;4971492;28;20505;-75
2021/05/05 03:28:21;;;;;;;5.47;3.40;;;;;;;9.82;86.34;97075.63;4971294;28;20027;-74
2021/05/05 03:30:47;;;;;;;2.85;2.45;;;;;;;10.01;85.53;97076.25;4971497;28;20027;-76
2021/05/05 03:33:12;;;;;;;4.57;2.58;;;;;;;9.93;85.41;97064.13;4969918;28;20047;-74
2021/05/05 03:35:38;;;;;;;8.55;2.53;;;;;;;9.98;85.31;97069.47;4971278;28;20392;-75
2021/05/05 03:38:04;;;;;;;5.40;2.50;;;;;;;10.02;85.16;97062.25;4971120;28;20035;-76
2021/05/05 03:40:29;;;;;;;4.80;2.80;;;;;;;10.11;84.96;97065.03;4971841;28;20422;-75
2021/05/05 03:42:56;;;;;;;4.00;2.33;;;;;;;10.24;83.91;97064.19;4975076;28;20122;-75
2021/05/05 03:45:21;;;;;;;4.57;3.22;;;;;;;10.22;84.06;97069.13;4975388;28;20037;-74
2021/05/05 03:47:47;;;;;;;10.20;2.80;;;;;;;10.18;84.28;97062.69;4975234;28;20114;-76
2021/05/05 03:50:13;;;;;;;9.23;4.47;;;;;;;10.14;84.39;97069.91;4975183;28;20427;-75
2021/05/05 03:52:38;;;;;;;10.65;3.40;;;;;;;10.18;84.21;97068.16;4975283;28;20133;-75
2021/05/05 03:55:06;;;;;;;6.10;2.65;;;;;;;10.15;84.80;97071.50;4975127;28;20383;-75
2021/05/05 03:57:31;;;;;;;5.97;2.83;;;;;;;10.23;84.56;97056.28;4973811;28;20483;-75
2021/05/05 03:59:57;;;;;;;4.40;2.83;;;;;;;10.34;84.36;97063.88;4974749;28;20800;-77
2021/05/05 04:02:23;;;;;;;5.03;2.97;;;;;;;10.40;84.13;97067.31;4975417;28;20050;-77
2021/05/05 04:04:48;;;;;;;3.50;2.88;;;;;;;10.44;83.93;97060.88;4975122;28;20042;-74
2021/05/05 04:07:14;;;;;;;6.38;2.85;;;;;;;10.50;83.54;97062.34;4973773;28;20495;-75
2021/05/05 04:09:39;;;;;;;5.43;2.92;;;;;;;10.56;83.22;97060.25;4973918;28;20035;-75
2021/05/05 04:12:06;;;;;;;4.78;2.67;;;;;;;10.61;82.89;97055.47;4980890;28;20038;-75
2021/05/05 04:14:32;;;;;;;3.92;2.65;;;;;;;10.67;82.28;97059.66;4976790;28;20557;-76
2021/05/05 04:16:57;;;;;;;4.95;3.10;;;;;;;10.73;82.00;97052.94;4976937;28;20125;-75
2021/05/05 04:19:23;;;;;;;7.05;3.38;;;;;;;10.80;81.29;97062.59;4974254;28;20137;-75
2021/05/05 04:21:49;;;;;;;7.10;4.00;;;;;;;10.83;80.90;97051.81;4972699;28;20157;-75
2021/05/05 04:24:15;;;;;;;5.93;3.60;;;;;;;10.89;80.70;97052.47;4972227;28;20058;-76
2021/05/05 04:26:40;;;;;;;6.25;2.92;;;;;;;10.95;79.67;97062.13;4973739;28;20105;-76
2021/05/05 04:29:07;;;;;;;5.28;3.40;;;;;;;11.14;79.18;97060.72;4980311;28;20070;-76
2021/05/05 04:31:33;;;;;;;6.68;3.25;;;;;;;11.16;78.69;97058.44;4973902;28;20047;-75
2021/05/05 04:33:59;;;;;;;4.90;2.05;;;;;;;11.27;77.69;97069.91;4973310;28;20019;-75
2021/05/05 04:36:24;;;;;;;8.45;2.97;;;;;;;11.38;77.18;97067.63;4973435;28;20026;-76
2021/05/05 04:38:50;;;;;;;10.80;3.10;;;;;;;11.49;76.28;97071.66;4973229;28;20101;-75
2021/05/05 04:41:15;;;;;;;4.03;2.85;;;;;;;11.60;75.58;97067.47;4972238;28;20023;-78
2021/05/05 04:43:41;;;;;;;4.07;2.80;;;;;;;11.71;74.54;97064.13;4973079;28;20027;-76
2021/05/05 04:46:07;;;;;;;4.15;2.53;;;;;;;11.87;74.18;97067.16;4974900;28;20052;-75
2021/05/05 04:48:34;;;;;;;7.43;2.92;;;;;;;11.77;74.16;97065.56;4971862;28;20026;-74
2021/05/05 04:50:59;;;;;;;3.33;2.33;;;;;;;11.76;74.15;97071.34;4969515;28;20166;-74
2021/05/05 04:53:27;;;;;;;4.40;3.13;;;;;;;11.72;74.28;97073.94;4970800;28;20137;-78
2021/05/05 04:55:53;;;;;;;4.38;2.47;;;;;;;11.72;73.98;97073.94;4968259;28;20392;-75
2021/05/05 04:58:19;;;;;;;3.17;2.88;;;;;;;11.91;73.65;97078.25;4963731;28;20039;-77
2021/05/05 05:00:45;;;;;;;3.38;2.38;;;;;;;12.00;72.82;97085.31;4961771;28;20474;-78
2021/05/05 05:03:11;;;;;;;3.90;2.65;;;;;;;12.08;72.10;97080.97;4970072;28;20157;-75
2021/05/05 05:05:36;;;;;;;5.22;2.47;;;;;;;12.11;72.04;97091.28;4969992;28;20045;-76
2021/05/05 05:08:07;;;;;;;5.85;2.53;;;;;;;12.10;72.17;97086.91;4970659;28;20505;-75
2021/05/05 05:10:33;;;;;;;4.55;1.80;;;;;;;12.07;72.05;97082.91;4970306;28;20551;-78
2021/05/05 05:13:00;;;;;;;5.18;2.35;;;;;;;12.29;71.62;97087.34;4972203;28;20034;-78
2021/05/05 05:15:28;;;;;;;3.45;2.10;;;;;;;12.45;70.65;97091.16;4969653;28;20495;-76
2021/05/05 05:17:53;;;;;;;5.63;2.47;;;;;;;12.73;69.88;97081.34;4972425;28;20619;-78
2021/05/05 05:20:19;;;;;;;5.10;2.45;;;;;;;12.74;69.20;97088.47;4973261;28;20109;-82
2021/05/05 05:22:48;;;;;;;3.10;2.60;;;;;;;13.02;68.77;97097.03;4972533;28;20155;-75
2021/05/05 05:25:14;;;;;;;9.57;2.83;;;;;;;13.22;67.60;97093.53;4972543;28;20022;-83
2021/05/05 05:27:39;;;;;;;10.60;2.47;;;;;;;13.32;67.15;97089.56;4973099;28;20033;-77
2021/05/05 05:30:08;;;;;;;7.85;3.28;;;;;;;13.44;66.45;97102.59;4971035;28;20496;-78
2021/05/05 05:32:34;;;;;;;6.13;2.75;;;;;;;13.70;65.29;97087.50;4972086;28;20046;-77
2021/05/05 05:34:59;;;;;;;6.93;2.50;;;;;;;13.80;64.84;97095.34;4968484;28;20037;-77
2021/05/05 05:37:25;;;;;;;3.40;2.08;;;;;;;14.12;63.72;97090.19;4973051;28;20034;-76
2021/05/05 05:39:50;;;;;;;7.25;2.88;;;;;;;14.45;62.02;97093.72;4971681;28;20030;-81
2021/05/05 05:42:16;;;;;;;8.05;2.67;;;;;;;14.23;62.03;97102.34;4973233;28;20030;-81
2021/05/05 05:44:41;;;;;;;7.43;2.38;;;;;;;14.09;62.65;97099.94;4972762;28;20026;-79
2021/05/05 05:47:06;;;;;;;3.50;2.40;;;;;;;14.00;61.95;97092.91;4979382;28;20030;-82
2021/05/05 05:49:32;;;;;;;15.20;2.20;;;;;;;14.21;61.25;97093.66;4972528;28;20078;-82
2021/05/05 05:51:58;;;;;;;2.28;1.70;;;;;;;14.63;59.93;97094.34;4959802;28;20039;-83
2021/05/05 05:54:23;;;;;;;3.15;2.10;;;;;;;14.72;59.75;97090.31;4952113;28;20055;-81
2021/05/05 05:56:49;;;;;;;4.25;2.13;;;;;;;14.87;58.94;97086.91;4954268;28;20058;-82
2021/05/05 05:59:14;;;;;;;5.30;2.53;;;;;;;15.15;58.83;97095.25;4953871;28;20065;-79
2021/05/05 06:01:40;;;;;;;2.83;1.80;;;;;;;14.90;58.99;97071.63;4951046;28;20039;-77
2021/05/05 06:04:05;;;;;;;4.75;2.30;;;;;;;15.21;58.88;97074.59;4952659;28;20035;-83
2021/05/05 06:06:31;;;;;;;6.07;2.60;;;;;;;15.20;58.54;97069.41;4969809;28;20039;-82
2021/05/05 06:08:57;;;;;;;4.18;1.80;;;;;;;15.50;57.60;97056.97;4971531;28;20058;-85
2021/05/05 06:11:23;;;;;;;3.05;2.20;;;;;;;16.20;55.50;97071.16;4967381;28;20034;-84
2021/05/05 06:13:48;;;;;;;5.35;2.03;;;;;;;15.89;56.27;97063.59;4971902;28;20391;-82
2021/05/05 06:16:14;;;;;;;3.03;2.28;;;;;;;15.63;56.40;97063.25;4972880;28;20089;-82
2021/05/05 06:18:39;;;;;;;4.60;2.53;;;;;;;15.81;55.83;97057.09;4971014;28;20395;-84
2021/05/05 06:21:06;;;;;;;4.63;1.83;;;;;;;15.23;57.79;97069.53;4972313;28;20030;-81
2021/05/05 06:23:35;;;;;;;2.20;1.50;;;;;;;15.36;57.32;97062.03;4970089;28;20025;-81
2021/05/05 06:26:00;;;;;;;4.43;1.73;;;;;;;15.02;58.38;97063.34;4971518;28;20031;-82
2021/05/05 06:28:29;;;;;;;4.53;1.90;;;;;;;15.06;58.41;97055.22;4971091;28;20029;-88
2021/05/05 06:30:57;;;;;;;3.95;1.70;;;;;;;15.61;56.94;97065.53;4977407;28;20026;-85
2021/05/05 06:33:22;;;;;;;3.03;2.03;;;;;;;15.42;57.14;97071.66;4980567;28;20038;-84
2021/05/05 06:35:48;;;;;;;2.35;1.70;;;;;;;15.09;57.97;97058.06;4974151;28;20035;-84
2021/05/05 06:38:13;;;;;;;5.05;2.40;;;;;;;15.24;57.57;97070.31;4972709;28;20058;-80
2021/05/05 06:40:39;;;;;;;6.40;2.20;;;;;;;15.24;57.60;97059.31;4971236;28;20093;-78
2021/05/05 06:43:04;;;;;;;4.07;1.95;;;;;;;15.57;56.88;97068.19;4969511;28;20045;-79
2021/05/05 06:45:29;;;;;;;5.43;1.80;;;;;;;15.57;56.82;97075.69;4969997;28;20029;-80
2021/05/05 06:47:55;;;;;;;10.00;2.13;;;;;;;15.74;56.03;97059.66;4970798;28;20047;-81
2021/05/05 06:50:20;;;;;;;7.13;1.52;;;;;;;16.18;54.90;97066.00;4969589;28;20037;-77
2021/05/05 06:52:46;;;;;;;4.40;2.50;;;;;;;16.92;53.34;97056.06;4970106;28;20495;-79
2021/05/05 06:55:12;;;;;;;6.13;2.42;;;;;;;16.74;53.31;97052.06;4968631;28;20023;-80
2021/05/05 06:57:38;;;;;;;4.35;1.80;;;;;;;17.01;52.56;97045.63;4970086;28;20472;-82
2021/05/05 07:00:08;;;;;;;2.03;1.35;;;;;;;17.15;52.31;97048.72;4970598;28;20033;-80
2021/05/05 07:02:33;;;;;;;3.83;2.00;;;;;;;17.01;52.62;97048.38;4970631;28;20110;-80
2021/05/05 07:04:59;;;;;;;7.68;2.03;;;;;;;17.20;51.88;97050.41;4970444;28;20113;-79
2021/05/05 07:07:28;;;;;;;3.35;1.80;;;;;;;17.01;52.30;97059.44;4969755;28;20027;-79
2021/05/05 07:09:53;;;;;;;3.08;1.88;;;;;;;17.02;52.64;97050.78;4970960;28;20026;-78
2021/05/05 07:12:19;;;;;;;2.88;1.85;;;;;;;17.11;52.12;97034.81;4970850;28;20109;-78
2021/05/05 07:14:47;;;;;;;8.48;1.65;;;;;;;17.12;52.21;97044.72;4969156;28;20395;-81
2021/05/05 07:17:13;;;;;;;3.35;1.73;;;;;;;17.60;51.51;97048.19;4970022;28;20443;-78
2021/05/05 07:19:38;;;;;;;2.75;1.65;;;;;;;17.67;50.57;97042.78;4970622;28;20031;-78
2021/05/05 07:22:05;;;;;;;1.95;1.58;;;;;;;17.82;50.28;97050.22;4969599;28;20030;-78
2021/05/05 07:24:31;;;;;;;6.57;1.60;;;;;;;17.83;49.72;97043.50;4969079;28;20081;-78
2021/05/05 07:26:56;;;;;;;3.13;1.73;;;;;;;18.05;49.15;97055.78;4969088;28;20031;-74
2021/05/05 07:29:22;;;;;;;4.68;1.60;;;;;;;18.12;48.34;97048.44;4970706;28;20061;-78
2021/05/05 07:31:47;;;;;;;4.00;2.10;;;;;;;18.90;46.62;97038.75;4969792;28;20465;-78
2021/05/05 07:34:14;;;;;;;1.58;1.45;;;;;;;19.40;45.77;97047.84;4969201;28;20158;-81
2021/05/05 07:36:44;;;;;;;2.78;1.60;;;;;;;19.22;45.83;97034.50;4968237;28;20023;-77
2021/05/05 07:40:09;;;;;;;3.05;1.63;;;;;;;18.73;46.98;97027.38;4967571;28;20027;-78
2021/05/05 07:47:18;;;;;;;3.45;1.73;;;;;;;17.96;48.63;97022.00;4951187;28;20153;-80
2021/05/05 07:49:49;;;;;;;6.25;2.00;;;;;;;17.90;48.68;97018.75;4951443;28;20057;-78
2021/05/05 07:52:19;;;;;;;5.97;2.08;;;;;;;17.58;48.99;97022.81;4968695;28;20066;-80
2021/05/05 07:54:45;;;;;;;4.15;1.58;;;;;;;17.94;48.94;97027.94;4970234;28;20023;-80
2021/05/05 07:57:11;;;;;;;3.88;2.55;;;;;;;17.78;49.08;97027.22;4969710;28;20045;-79
2021/05/05 07:59:37;;;;;;;3.35;1.90;;;;;;;18.00;48.79;97029.22;4970314;28;20038;-79
2021/05/05 08:02:04;;;;;;;8.18;2.42;;;;;;;18.03;48.54;97031.25;4970680;28;20106;-82
2021/05/05 08:04:29;;;;;;;6.82;2.17;;;;;;;18.32;47.64;97027.06;4970560;28;20038;-79
2021/05/05 08:06:55;;;;;;;4.85;2.35;;;;;;;18.26;47.63;97022.19;4971628;28;20027;-79
2021/05/05 08:09:22;;;;;;;8.88;2.28;;;;;;;18.12;47.64;97017.97;4970724;28;20534;-79
2021/05/05 08:11:48;;;;;;;6.95;2.42;;;;;;;17.71;48.71;97021.53;4969730;28;20488;-80
2021/05/05 08:14:13;;;;;;;5.05;2.47;;;;;;;17.48;48.43;97017.84;4971769;28;20093;-78
2021/05/05 08:16:39;;;;;;;8.27;2.35;;;;;;;17.45;48.49;97019.38;4970614;28;20030;-79
2021/05/05 08:19:04;;;;;;;4.47;2.20;;;;;;;17.60;47.80;97009.44;4970574;28;20446;-79
2021/05/05 08:21:30;;;;;;;8.07;1.98;;;;;;;17.91;46.93;97009.28;4970466;28;20071;-79
2021/05/05 08:23:57;;;;;;;4.72;1.92;;;;;;;17.64;47.03;97008.34;4970770;28;20531;-80
2021/05/05 08:26:23;;;;;;;3.28;2.20;;;;;;;17.42;47.87;97002.69;4969871;28;20026;-82
2021/05/05 08:28:48;;;;;;;3.55;1.77;;;;;;;17.96;46.54;97002.63;4973262;28;20035;-80
2021/05/05 08:31:14;;;;;;;3.85;1.88;;;;;;;19.06;44.16;97008.91;4972268;28;20031;-82
2021/05/05 08:33:39;;;;;;;3.97;1.92;;;;;;;20.23;41.18;97000.09;4973292;28;20034;-81
2021/05/05 08:36:05;;;;;;;5.38;1.83;;;;;;;21.38;39.18;96999.84;4993944;28;20019;-79
2021/05/05 08:38:31;;;;;;;4.50;1.58;;;;;;;21.63;38.37;96998.78;4993994;28;20080;-80
2021/05/05 08:40:56;;;;;;;2.67;1.60;;;;;;;21.68;38.21;97003.97;4999624;28;20030;-78
2021/05/05 08:43:22;;;;;;;2.35;1.55;;;;;;;22.95;36.09;97006.28;4990965;28;20062;-80
2021/05/05 08:45:48;;;;;;;11.60;1.63;;;;;;;24.14;33.82;97011.97;4970279;28;20439;-79
2021/05/05 08:48:19;;;;;;;6.88;1.73;;;;;;;24.07;33.97;97009.97;4971613;28;20082;-78
2021/05/05 08:50:44;;;;;;;2.97;1.45;;;;;;;24.97;32.15;96998.59;4973702;28;20058;-76
2021/05/05 08:53:10;;;;;;;3.97;1.55;;;;;;;22.96;35.75;97002.28;4973808;28;20045;-78
2021/05/05 08:55:36;;;;;;;4.20;1.77;;;;;;;21.14;38.84;97010.44;4974114;28;20027;-77
2021/05/05 08:58:02;;;;;;;4.55;1.20;;;;;;;21.80;38.29;97008.41;4972826;28;20061;-79
2021/05/05 09:00:31;;;;;;;3.95;1.67;;;;;;;20.65;39.54;97010.81;4971860;28;20029;-80
2021/05/05 09:02:57;;;;;;;2.85;1.45;;;;;;;20.75;39.78;96989.84;4969860;28;20054;-78
2021/05/05 09:05:23;;;;;;;3.55;1.55;;;;;;;22.40;36.79;96986.28;4972396;28;20101;-80
2021/05/05 09:07:49;;;;;;;3.50;1.80;;;;;;;23.14;35.45;96985.53;4973915;28;20027;-78
2021/05/05 09:10:17;;;;;;;1.50;1.20;;;;;;;23.90;34.11;96988.50;4974474;28;20022;-78
2021/05/05 09:12:44;;;;;;;3.60;1.48;;;;;;;25.29;31.87;96987.13;4973904;28;20034;-76
2021/05/05 09:15:17;;;;;;;5.25;1.77;;;;;;;26.83;29.28;96979.94;4972810;28;20519;-77
2021/05/05 09:17:46;;;;;;;1.60;1.10;;;;;;;25.00;31.24;96983.00;4972770;28;20030;-78
2021/05/05 09:20:17;;;;;;;4.82;1.38;;;;;;;23.55;33.78;96978.28;4972709;28;20452;-78
2021/05/05 09:22:45;;;;;;;6.22;1.80;;;;;;;22.11;36.15;96982.66;4972390;28;20019;-79
2021/05/05 09:25:14;;;;;;;2.30;1.33;;;;;;;21.43;37.32;96975.22;4971436;28;20122;-79
2021/05/05 09:27:41;;;;;;;2.85;1.20;;;;;;;20.95;38.44;96974.53;4973081;28;20125;-79
2021/05/05 09:30:18;;;;;;;1.85;1.42;;;;;;;20.38;39.96;96972.47;4973421;28;20030;-80
2021/05/05 09:32:54;;;;;;;2.95;2.17;;;;;;;19.66;40.59;96972.88;4970571;28;20472;-78
2021/05/05 09:35:29;;;;;;;6.13;1.42;;;;;;;20.24;39.88;96973.91;4972024;28;20027;-80
2021/05/05 09:38:00;;;;;;;6.13;1.80;;;;;;;19.62;41.44;96969.25;4972992;28;20551;-78
2021/05/05 09:40:26;;;;;;;5.65;1.75;;;;;;;19.21;42.43;96971.06;4972721;28;20035;-79
2021/05/05 09:42:53;;;;;;;2.25;1.60;;;;;;;20.36;40.84;96970.06;4968574;28;20391;-80
2021/05/05 09:45:19;;;;;;;4.13;1.70;;;;;;;21.34;38.69;96961.66;4990462;28;20034;-78
2021/05/05 09:47:50;;;;;;;6.30;1.38;;;;;;;20.66;39.42;96958.81;4990281;28;20391;-79
2021/05/05 09:50:38;;;;;;;2.05;1.60;;;;;;;21.29;38.80;96961.25;4992097;28;20058;-77
2021/05/05 09:53:12;;;;;;;2.45;1.27;;;;;;;21.84;37.15;96964.63;4990925;28;20031;-77
2021/05/05 09:55:38;;;;;;;3.10;1.38;;;;;;;21.76;37.43;96963.03;4982908;28;20035;-79
2021/05/05 09:58:40;;;;;;;3.72;1.60;;;;;;;21.22;38.62;96966.75;4969949;28;20447;-78
2021/05/05 10:01:06;;;;;;;3.33;1.70;;;;;;;20.56;39.80;96963.09;4925410;29;20031;-79
2021/05/05 10:03:34;;;;;;;2.30;1.58;;;;;;;20.09;40.71;96963.84;4964341;28;20039;-78
2021/05/05 10:06:18;;;;;;;2.20;1.63;;;;;;;19.50;42.52;96972.28;4972323;28;20109;-79
2021/05/05 10:08:43;;;;;;;1.85;1.50;;;;;;;18.91;43.39;96967.50;4971722;28;20039;-78
2021/05/05 10:11:09;;;;;;;4.53;1.55;;;;;;;20.42;40.34;96974.09;4972297;28;20037;-79
2021/05/05 10:13:36;;;;;;;1.67;1.20;;;;;;;19.54;41.71;96970.34;4972612;28;20034;-79
2021/05/05 10:16:02;;;;;;;1.80;1.60;;;;;;;19.54;42.26;96959.25;4971607;28;20170;-78
2021/05/05 10:18:28;;;;;;;2.03;1.58;;;;;;;18.83;42.97;96955.47;4971680;28;20426;-77
2021/05/05 10:20:53;;;;;;;7.40;1.70;;;;;;;18.58;43.94;96937.69;4971533;28;20488;-77
2021/05/05 10:23:19;;;;;;;6.13;1.88;;;;;;;19.76;41.47;96941.69;4971587;28;20077;-79
2021/05/05 10:25:49;;;;;;;4.05;1.80;;;;;;;21.24;38.31;96944.91;4972037;28;20030;-77
2021/05/05 10:28:14;;;;;;;2.70;1.60;;;;;;;22.00;36.83;96945.63;4971935;28;20053;-77
2021/05/05 10:30:42;;;;;;;3.03;1.15;;;;;;;23.32;34.69;96945.19;4972070;28;20468;-78
2021/05/05 10:33:15;;;;;;;2.10;1.50;;;;;;;22.27;36.11;96943.28;4970777;28;20051;-77
2021/05/05 10:35:40;;;;;;;7.47;1.58;;;;;;;20.58;39.09;96941.28;4971231;28;20083;-77
2021/05/05 10:38:07;;;;;;;4.28;1.50;;;;;;;20.12;39.57;96942.81;4970041;28;20523;-76
2021/05/05 10:40:36;;;;;;;1.52;1.30;;;;;;;19.90;39.88;96930.72;4970868;28;20034;-77
2021/05/05 10:43:04;;;;;;;2.78;1.73;;;;;;;19.75;40.61;96934.53;4971830;28;20015;-78
2021/05/05 10:45:34;;;;;;;3.42;1.90;;;;;;;19.80;40.18;96925.84;4971241;28;20034;-78
2021/05/05 10:48:14;;;;;;;3.38;1.90;;;;;;;20.38;39.24;96926.03;4971041;28;20011;-80
2021/05/05 10:50:50;;;;;;;4.18;1.80;;;;;;;20.87;38.19;96922.81;4962103;28;20034;-77
2021/05/05 10:53:16;;;;;;;4.60;1.35;;;;;;;20.72;37.34;96921.94;4991024;28;20029;-80
2021/05/05 10:55:50;;;;;;;1.38;1.15;;;;;;;20.18;38.56;96933.75;4991249;28;20101;-75
2021/05/05 10:58:16;;;;;;;2.67;1.60;;;;;;;19.82;38.95;96920.72;4989467;28;20034;-77
2021/05/05 11:00:43;;;;;;;2.30;1.27;;;;;;;18.95;41.27;96924.00;4990530;28;20030;-75
2021/05/05 11:03:09;;;;;;;4.93;1.35;;;;;;;18.71;41.28;96930.75;4990906;28;20072;-74
2021/05/05 11:05:35;;;;;;;4.35;1.52;;;;;;;18.90;40.87;96921.53;4991166;28;20026;-76
2021/05/05 11:08:23;;;;;;;3.80;1.52;;;;;;;18.91;40.66;96921.16;4982282;28;20086;-77
2021/05/05 11:10:50;;;;;;;4.10;1.40;;;;;;;18.85;40.89;96919.91;4958272;28;20465;-78
2021/05/05 11:13:18;;;;;;;2.47;1.55;;;;;;;18.51;41.46;96916.22;4971934;28;20055;-77
2021/05/05 11:15:44;;;;;;;2.42;1.45;;;;;;;18.43;41.71;96913.69;4973215;28;20097;-78
2021/05/05 11:18:28;;;;;;;3.28;1.40;;;;;;;18.48;41.39;96911.38;4970829;28;20038;-80
2021/05/05 11:21:01;;;;;;;3.60;1.63;;;;;;;18.58;41.54;96916.31;4970856;28;20031;-78
2021/05/05 11:23:39;;;;;;;2.25;1.40;;;;;;;18.13;42.14;96914.41;4971487;28;20085;-77
2021/05/05 11:26:14;;;;;;;4.80;1.40;;;;;;;18.05;42.33;96909.91;4971067;28;20035;-77
2021/05/05 11:28:56;;;;;;;3.55;1.17;;;;;;;17.78;43.17;96916.53;4970498;28;20491;-78
2021/05/05 11:31:47;;;;;;;5.10;1.45;;;;;;;17.85;43.54;96927.75;4970434;28;20035;-74
2021/05/05 11:34:24;;;;;;;3.17;1.63;;;;;;;17.83;43.86;96912.66;4970175;28;20050;-78
2021/05/05 11:36:55;;;;;;;2.53;1.35;;;;;;;17.91;44.13;96920.75;4967472;28;20034;-76
2021/05/05 11:39:36;;;;;;;4.90;1.60;;;;;;;17.81;43.73;96910.28;4968327;28;20031;-78
2021/05/05 11:42:11;;;;;;;3.35;1.98;;;;;;;17.95;43.46;96907.75;4968999;28;20118;-76